Nearby METAR Reports

 

LEXJ - Santander/Paraya, Spain
Distancia a la estación: ESE 6km
Actualizado: 20/04/2018 19:30
Despejado
Despejado
 Viento del E
Viento: E 17 km/h
Temperatura: 19°C
Rocío: 12°C
Humedad: 64%
Barómetro: 1016 hPa
Resumen: Despejado
Visibilidad: greater than 10 km
2018/04/20 17:30 LEXJ 201730Z 10009KT 060V140 CAVOK 19/12 Q1016
LEBB - Bilbao/Sondica, Spain
Distancia a la estación: ESE 80km
Actualizado: 20/04/2018 19:30
Despejado
Despejado
 Viento del E
Viento: E 13 km/h
Temperatura: 25°C
Rocío: 11°C
Humedad: 42%
Barómetro: 1017 hPa
Resumen: Despejado
Visibilidad: greater than 10 km
2018/04/20 17:30 LEBB 201730Z 09007KT 020V140 CAVOK 25/11 Q1017 NOSIG
 
LEZG - Zaragoza (mil/Ci, Spain
Distancia a la estación: NNE 176km
Actualizado: 20/04/2018 19:30
Despejado
Despejado
 Viento del E
Viento: E 26 km/h
Temperatura: 22°C
Rocío: 8°C
Humedad: 41%
Barómetro: 1020 hPa
Resumen: Despejado
Visibilidad: greater than 10 km
2018/04/20 17:30 LEZG 201730Z 10014KT CAVOK 22/08 Q1020
LEVT - Vitoria, Spain
Distancia a la estación: ESE 114km
Actualizado: 20/04/2018 19:30
Nubes dispersas
Nubes dispersas
 Viento del SE
Viento: SE 22 km/h
Temperatura: 20°C
Rocío: 8°C
Humedad: 46%
Barómetro: 1019 hPa
Nubes: Nubes dispersas
Visibilidad: 10 km
Detalle Nubes: Nubes dispersas 1219 m
2018/04/20 17:30 LEVT 201730Z 14012KT 100V170 9999 FEW040 20/08 Q1019
 
LEBG - Burgos/Villafria, Spain
Distancia a la estación: S 122km
Actualizado: 20/04/2018 19:30
Nubes dispersas
Nubes dispersas
 Viento del ENE
Viento: ENE 24 km/h
Temperatura: 17°C
Rocío: 8°C
Humedad: 56%
Barómetro: 1019 hPa
Nubes: Nubes dispersas
Visibilidad: 10 km
Detalle Nubes: Nubes dispersas 1524 m
2018/04/20 17:30 LEBG 201730Z 06013KT 9999 FEW050 17/08 Q1019
LELO - Logrono/Agoncill, Spain
Distancia a la estación: SE 169km
Actualizado: 20/04/2018 19:00
Despejado
Despejado
 Viento del ESE
Viento: ESE 28 km/h
Temperatura: 22°C
Rocío: 8°C
Humedad: 41%
Barómetro: 1019 hPa
Resumen: Despejado
Visibilidad: greater than 10 km
2018/04/20 17:00 LELO 201700Z 11015KT CAVOK 22/08 Q1019
 
LESO - San Sebastian/Fu, Spain
Distancia a la estación: E 169km
Actualizado: 20/04/2018 19:30
Despejado
Despejado
 Viento del N
Viento: N 6 km/h
Temperatura: 23°C
Rocío: 11°C
Humedad: 47%
Barómetro: 1019 hPa
Resumen: Despejado
Visibilidad: greater than 10 km
2018/04/20 17:30 LESO 201730Z 35003KT 290V030 CAVOK 23/11 Q1019
LEAS - Asturias/Aviles, Spain
Distancia a la estación: O 172km
Actualizado: 20/04/2018 19:30
Muy nuboso
Muy nuboso
 Viento del ENE
Viento: ENE 9 km/h
Temperatura: 14°C
Rocío: 12°C
Humedad: 88%
Barómetro: 1017 hPa
Nubes: Muy nuboso
Visibilidad: 8 km
Detalle Nubes: Parcialmente nuboso 183 m
Muy nuboso 366 m
2018/04/20 17:30 LEAS 201730Z 07005KT 020V120 8000 SCT006 BKN012 14/12 Q1017 NOSIG
 
LELN - Leon/Virgen Cami, Spain
Distancia a la estación: SO 174km
Actualizado: 20/04/2018 19:00
Despejado
Despejado
 Viento del ESE
Viento: ESE 20 km/h
Temperatura: 20°C
Rocío: 2°C
Humedad: 30%
Barómetro: 1018 hPa
Resumen: Despejado
Visibilidad: greater than 10 km
2018/04/20 17:00 LELN 201700Z 12011KT 080V150 CAVOK 20/02 Q1018
LFBZ - Biarritz/Anglet, France
Distancia a la estación: E 191km
Actualizado: 20/04/2018 19:30
Tormenta
Tormenta
 Viento del N
Viento: N 9 km/h
Temperatura: 22°C
Rocío: 9°C
Humedad: 44%
Barómetro: 1019 hPa
Nubes: Tormenta
Visibilidad: 10 km
2018/04/20 17:30 LFBZ 201730Z AUTO 01005KT 340V070 9999 ///CB 22/09 Q1019 TEMPO 4000 -SHRA
 
LEPP - Pamplona/Noain, Spain
Distancia a la estación: ESE 199km
Actualizado: 20/04/2018 19:30
Despejado
Despejado
 Viento del S
Viento: S 19 km/h
Temperatura: 21°C
Rocío: 8°C
Humedad: 43%
Barómetro: 1020 hPa
Resumen: Despejado
Visibilidad: greater than 10 km
2018/04/20 17:30 LEPP 201730Z 18010KT 150V250 CAVOK 21/08 Q1020
LEBL - Barcelona Airpor, Spain
Distancia a la estación: ESE 554km
Actualizado: 20/04/2018 19:30
Despejado
Despejado
 Viento del S
Viento: S 9 km/h
Temperatura: 18°C
Rocío: 10°C
Humedad: 60%
Barómetro: 1021 hPa
Resumen: Despejado
Visibilidad: greater than 10 km
2018/04/20 17:30 LEBL 201730Z 17005KT 140V210 CAVOK 18/10 Q1021 NOSIG
 
LEMD - Madrid/Barajas, Spain
Distancia a la estación: S 325km
Actualizado: 20/04/2018 19:30
Nubes dispersas
Nubes dispersas
 Viento del SSE
Viento: SSE 24 km/h
Temperatura: 21°C
Rocío: 8°C
Humedad: 43%
Barómetro: 1018 hPa
Nubes: Nubes dispersas
Visibilidad: 10 km
Detalle Nubes: Nubes dispersas 1981 m
2018/04/20 17:30 LEMD 201730Z 15013KT 120V180 9999 FEW065 21/08 Q1018 NOSIG
LPPT - Lisbon/Portela, Portugal
Distancia a la estación: SO 663km
Actualizado: 20/04/2018 19:30
Despejado
Despejado
 Viento del varies
Viento: varies 6 km/h, Racha: 24 km/h
Temperatura: 21°C
Rocío: 11°C
Humedad: 53%
Barómetro: 1014 hPa
Resumen: Despejado
Visibilidad: greater than 10 km
2018/04/20 17:30 LPPT 201730Z VRB03G13KT CAVOK 21/11 Q1014
 
LECO - La Coruna/Alvedr, Spain
Distancia a la estación: O 349km
Actualizado: 20/04/2018 19:30
Muy nuboso
Muy nuboso
 Viento del NO
Viento: NO 13 km/h
Temperatura: 14°C
Rocío: 12°C
Humedad: 88%
Barómetro: 1016 hPa
Nubes: Muy nuboso
Visibilidad: 10 km
Detalle Nubes: Nubes dispersas 213 m
Muy nuboso 274 m
2018/04/20 17:30 LECO 201730Z 32007KT 260V020 9999 FEW007 BKN009 14/12 Q1016 NOSIG
LEST - Santiago/Labacol, Spain
Distancia a la estación: O 358km
Actualizado: 20/04/2018 19:30
Nubes dispersas
Nubes dispersas
 Viento del N
Viento: N 15 km/h
Temperatura: 17°C
Rocío: 13°C
Humedad: 77%
Barómetro: 1015 hPa
Nubes: Nubes dispersas
Visibilidad: 10 km
Detalle Nubes: Nubes dispersas 914 m
2018/04/20 17:30 LEST 201730Z 36008KT 330V050 9999 FEW030CB 17/13 Q1015 TEMPO TSRA SCT030CB